sensor_id;sensor_type;location;lat;lon;timestamp;P1;durP1;ratioP1;P2;durP2;ratioP2
23517;SDS011;11935;50.878;4.392;2022-12-18T00:00:46;58.08;;;29.92;;
23517;SDS011;11935;50.878;4.392;2022-12-18T00:03:15;54.67;;;28.90;;
23517;SDS011;11935;50.878;4.392;2022-12-18T00:05:48;56.65;;;28.58;;
23517;SDS011;11935;50.878;4.392;2022-12-18T00:08:14;58.15;;;29.75;;
23517;SDS011;11935;50.878;4.392;2022-12-18T00:10:40;61.60;;;32.13;;
23517;SDS011;11935;50.878;4.392;2022-12-18T00:13:06;62.30;;;30.60;;
23517;SDS011;11935;50.878;4.392;2022-12-18T00:15:36;57.67;;;29.42;;
23517;SDS011;11935;50.878;4.392;2022-12-18T00:18:02;54.25;;;28.95;;
23517;SDS011;11935;50.878;4.392;2022-12-18T00:20:28;57.80;;;29.13;;
23517;SDS011;11935;50.878;4.392;2022-12-18T00:22:54;54.40;;;29.75;;
23517;SDS011;11935;50.878;4.392;2022-12-18T00:25:20;57.60;;;29.40;;
23517;SDS011;11935;50.878;4.392;2022-12-18T00:27:46;60.25;;;29.38;;
23517;SDS011;11935;50.878;4.392;2022-12-18T00:30:12;56.10;;;28.65;;
23517;SDS011;11935;50.878;4.392;2022-12-18T00:32:38;56.53;;;29.20;;
23517;SDS011;11935;50.878;4.392;2022-12-18T00:35:05;54.83;;;29.05;;
23517;SDS011;11935;50.878;4.392;2022-12-18T00:37:33;55.60;;;29.33;;
23517;SDS011;11935;50.878;4.392;2022-12-18T00:39:59;39.75;;;21.23;;
23517;SDS011;11935;50.878;4.392;2022-12-18T00:42:25;54.58;;;28.33;;
23517;SDS011;11935;50.878;4.392;2022-12-18T00:45:10;52.75;;;27.77;;
23517;SDS011;11935;50.878;4.392;2022-12-18T00:47:36;55.47;;;28.02;;
23517;SDS011;11935;50.878;4.392;2022-12-18T00:50:02;53.30;;;28.00;;
23517;SDS011;11935;50.878;4.392;2022-12-18T00:52:28;53.30;;;29.25;;
23517;SDS011;11935;50.878;4.392;2022-12-18T00:54:54;57.83;;;29.50;;
23517;SDS011;11935;50.878;4.392;2022-12-18T00:57:20;55.15;;;28.33;;
23517;SDS011;11935;50.878;4.392;2022-12-18T00:59:46;53.10;;;28.52;;
23517;SDS011;11935;50.878;4.392;2022-12-18T01:02:12;57.50;;;28.88;;
23517;SDS011;11935;50.878;4.392;2022-12-18T01:04:38;56.28;;;27.75;;
23517;SDS011;11935;50.878;4.392;2022-12-18T01:07:04;51.03;;;27.42;;
23517;SDS011;11935;50.878;4.392;2022-12-18T01:09:30;51.60;;;27.75;;
23517;SDS011;11935;50.878;4.392;2022-12-18T01:11:56;54.58;;;27.67;;
23517;SDS011;11935;50.878;4.392;2022-12-18T01:14:22;48.42;;;27.08;;
23517;SDS011;11935;50.878;4.392;2022-12-18T01:16:49;48.38;;;27.38;;
23517;SDS011;11935;50.878;4.392;2022-12-18T01:19:15;55.45;;;28.45;;
23517;SDS011;11935;50.878;4.392;2022-12-18T01:21:41;50.15;;;27.02;;
23517;SDS011;11935;50.878;4.392;2022-12-18T01:24:07;51.65;;;28.60;;
23517;SDS011;11935;50.878;4.392;2022-12-18T01:26:33;54.25;;;26.33;;
23517;SDS011;11935;50.878;4.392;2022-12-18T01:28:59;49.00;;;25.48;;
23517;SDS011;11935;50.878;4.392;2022-12-18T01:31:26;54.22;;;27.08;;
23517;SDS011;11935;50.878;4.392;2022-12-18T01:33:53;50.58;;;25.60;;
23517;SDS011;11935;50.878;4.392;2022-12-18T01:36:23;50.05;;;26.92;;
23517;SDS011;11935;50.878;4.392;2022-12-18T01:38:50;50.72;;;27.58;;
23517;SDS011;11935;50.878;4.392;2022-12-18T01:41:17;46.75;;;26.15;;
23517;SDS011;11935;50.878;4.392;2022-12-18T01:46:17;51.30;;;26.75;;
23517;SDS011;11935;50.878;4.392;2022-12-18T01:48:45;46.65;;;25.83;;
23517;SDS011;11935;50.878;4.392;2022-12-18T01:51:12;51.13;;;26.95;;
23517;SDS011;11935;50.878;4.392;2022-12-18T01:53:39;53.45;;;26.40;;
23517;SDS011;11935;50.878;4.392;2022-12-18T01:56:06;52.95;;;26.42;;
23517;SDS011;11935;50.878;4.392;2022-12-18T01:58:35;50.05;;;25.90;;
23517;SDS011;11935;50.878;4.392;2022-12-18T02:01:03;49.05;;;26.45;;
23517;SDS011;11935;50.878;4.392;2022-12-18T02:03:29;47.90;;;25.42;;
23517;SDS011;11935;50.878;4.392;2022-12-18T02:13:34;46.13;;;24.30;;
23517;SDS011;11935;50.878;4.392;2022-12-18T02:18:46;45.42;;;25.60;;
23517;SDS011;11935;50.878;4.392;2022-12-18T02:28:48;44.15;;;25.45;;
23517;SDS011;11935;50.878;4.392;2022-12-18T02:31:16;49.40;;;25.25;;
23517;SDS011;11935;50.878;4.392;2022-12-18T02:33:43;40.88;;;22.95;;
23517;SDS011;11935;50.878;4.392;2022-12-18T02:36:10;47.30;;;24.15;;
23517;SDS011;11935;50.878;4.392;2022-12-18T02:38:37;46.75;;;24.17;;
23517;SDS011;11935;50.878;4.392;2022-12-18T02:41:04;48.67;;;24.42;;
23517;SDS011;11935;50.878;4.392;2022-12-18T02:43:30;44.53;;;23.38;;
23517;SDS011;11935;50.878;4.392;2022-12-18T02:45:58;46.33;;;25.58;;
23517;SDS011;11935;50.878;4.392;2022-12-18T02:48:28;48.17;;;24.25;;
23517;SDS011;11935;50.878;4.392;2022-12-18T02:51:01;45.55;;;24.15;;
23517;SDS011;11935;50.878;4.392;2022-12-18T02:53:33;45.47;;;24.23;;
23517;SDS011;11935;50.878;4.392;2022-12-18T02:56:07;42.20;;;22.80;;
23517;SDS011;11935;50.878;4.392;2022-12-18T03:01:03;40.47;;;22.65;;
23517;SDS011;11935;50.878;4.392;2022-12-18T03:03:45;36.90;;;20.88;;
23517;SDS011;11935;50.878;4.392;2022-12-18T03:06:33;41.35;;;22.13;;
23517;SDS011;11935;50.878;4.392;2022-12-18T03:08:59;40.60;;;20.55;;
23517;SDS011;11935;50.878;4.392;2022-12-18T03:11:26;37.88;;;20.70;;
23517;SDS011;11935;50.878;4.392;2022-12-18T03:14:12;37.15;;;19.60;;
23517;SDS011;11935;50.878;4.392;2022-12-18T03:16:41;37.08;;;20.77;;
23517;SDS011;11935;50.878;4.392;2022-12-18T03:19:15;37.00;;;20.73;;
23517;SDS011;11935;50.878;4.392;2022-12-18T03:21:45;35.58;;;19.42;;
23517;SDS011;11935;50.878;4.392;2022-12-18T03:24:12;34.33;;;19.27;;
23517;SDS011;11935;50.878;4.392;2022-12-18T03:26:40;33.97;;;18.27;;
23517;SDS011;11935;50.878;4.392;2022-12-18T03:31:49;35.97;;;19.92;;
23517;SDS011;11935;50.878;4.392;2022-12-18T03:34:19;33.28;;;18.20;;
23517;SDS011;11935;50.878;4.392;2022-12-18T03:36:45;32.55;;;17.20;;
23517;SDS011;11935;50.878;4.392;2022-12-18T03:39:12;32.63;;;18.42;;
23517;SDS011;11935;50.878;4.392;2022-12-18T03:41:42;32.55;;;18.45;;
23517;SDS011;11935;50.878;4.392;2022-12-18T03:44:19;30.38;;;17.20;;
23517;SDS011;11935;50.878;4.392;2022-12-18T03:46:48;36.80;;;19.23;;
23517;SDS011;11935;50.878;4.392;2022-12-18T03:49:34;32.83;;;18.35;;
23517;SDS011;11935;50.878;4.392;2022-12-18T03:52:08;34.67;;;19.67;;
23517;SDS011;11935;50.878;4.392;2022-12-18T03:54:35;34.83;;;18.42;;
23517;SDS011;11935;50.878;4.392;2022-12-18T03:57:13;31.35;;;17.73;;
23517;SDS011;11935;50.878;4.392;2022-12-18T03:59:41;35.58;;;18.75;;
23517;SDS011;11935;50.878;4.392;2022-12-18T04:02:09;30.75;;;17.88;;
23517;SDS011;11935;50.878;4.392;2022-12-18T04:04:38;33.67;;;18.38;;
23517;SDS011;11935;50.878;4.392;2022-12-18T04:07:05;31.08;;;18.50;;
23517;SDS011;11935;50.878;4.392;2022-12-18T04:09:31;33.53;;;19.10;;
23517;SDS011;11935;50.878;4.392;2022-12-18T04:11:58;38.72;;;19.30;;
23517;SDS011;11935;50.878;4.392;2022-12-18T04:14:24;36.58;;;18.83;;
23517;SDS011;11935;50.878;4.392;2022-12-18T04:16:50;35.00;;;18.70;;
23517;SDS011;11935;50.878;4.392;2022-12-18T04:19:16;32.40;;;18.30;;
23517;SDS011;11935;50.878;4.392;2022-12-18T04:21:42;29.02;;;17.17;;
23517;SDS011;11935;50.878;4.392;2022-12-18T04:24:08;31.58;;;17.52;;
23517;SDS011;11935;50.878;4.392;2022-12-18T04:26:34;31.10;;;17.70;;
23517;SDS011;11935;50.878;4.392;2022-12-18T04:29:01;30.98;;;17.88;;
23517;SDS011;11935;50.878;4.392;2022-12-18T04:31:27;32.67;;;17.13;;
23517;SDS011;11935;50.878;4.392;2022-12-18T04:33:53;28.38;;;15.95;;
23517;SDS011;11935;50.878;4.392;2022-12-18T04:36:19;32.65;;;15.93;;
23517;SDS011;11935;50.878;4.392;2022-12-18T04:38:45;29.10;;;15.93;;
23517;SDS011;11935;50.878;4.392;2022-12-18T04:41:11;32.08;;;17.55;;
23517;SDS011;11935;50.878;4.392;2022-12-18T04:43:37;30.88;;;17.20;;
23517;SDS011;11935;50.878;4.392;2022-12-18T04:46:07;33.58;;;18.50;;
23517;SDS011;11935;50.878;4.392;2022-12-18T04:48:33;30.80;;;17.02;;
23517;SDS011;11935;50.878;4.392;2022-12-18T04:50:59;26.85;;;16.55;;
23517;SDS011;11935;50.878;4.392;2022-12-18T04:53:25;26.23;;;15.52;;
23517;SDS011;11935;50.878;4.392;2022-12-18T04:56:01;29.73;;;17.25;;
23517;SDS011;11935;50.878;4.392;2022-12-18T04:58:28;32.40;;;16.83;;
23517;SDS011;11935;50.878;4.392;2022-12-18T05:00:54;28.13;;;15.52;;
23517;SDS011;11935;50.878;4.392;2022-12-18T05:03:20;28.02;;;15.70;;
23517;SDS011;11935;50.878;4.392;2022-12-18T05:05:49;28.15;;;15.95;;
23517;SDS011;11935;50.878;4.392;2022-12-18T05:08:15;27.65;;;16.08;;
23517;SDS011;11935;50.878;4.392;2022-12-18T05:10:42;26.90;;;15.68;;
23517;SDS011;11935;50.878;4.392;2022-12-18T05:13:08;29.17;;;15.60;;
23517;SDS011;11935;50.878;4.392;2022-12-18T05:15:34;27.42;;;15.73;;
23517;SDS011;11935;50.878;4.392;2022-12-18T05:18:00;29.63;;;16.25;;
23517;SDS011;11935;50.878;4.392;2022-12-18T05:20:26;27.40;;;14.60;;
23517;SDS011;11935;50.878;4.392;2022-12-18T05:22:52;29.23;;;15.68;;
23517;SDS011;11935;50.878;4.392;2022-12-18T05:25:19;29.58;;;14.95;;
23517;SDS011;11935;50.878;4.392;2022-12-18T05:27:45;26.15;;;15.52;;
23517;SDS011;11935;50.878;4.392;2022-12-18T05:30:11;26.98;;;15.25;;
23517;SDS011;11935;50.878;4.392;2022-12-18T05:32:38;27.38;;;14.55;;
23517;SDS011;11935;50.878;4.392;2022-12-18T05:35:04;25.00;;;14.23;;
23517;SDS011;11935;50.878;4.392;2022-12-18T05:37:31;27.83;;;15.88;;
23517;SDS011;11935;50.878;4.392;2022-12-18T05:39:57;29.17;;;14.90;;
23517;SDS011;11935;50.878;4.392;2022-12-18T05:42:23;27.38;;;15.07;;
23517;SDS011;11935;50.878;4.392;2022-12-18T05:44:49;25.98;;;15.05;;
23517;SDS011;11935;50.878;4.392;2022-12-18T05:47:15;27.73;;;15.20;;
23517;SDS011;11935;50.878;4.392;2022-12-18T05:49:41;26.63;;;15.45;;
23517;SDS011;11935;50.878;4.392;2022-12-18T05:52:07;25.92;;;15.70;;
23517;SDS011;11935;50.878;4.392;2022-12-18T05:54:33;25.50;;;15.65;;
23517;SDS011;11935;50.878;4.392;2022-12-18T05:56:59;26.27;;;14.52;;
23517;SDS011;11935;50.878;4.392;2022-12-18T05:59:26;28.73;;;14.90;;
23517;SDS011;11935;50.878;4.392;2022-12-18T06:01:52;25.13;;;14.18;;
23517;SDS011;11935;50.878;4.392;2022-12-18T06:04:18;28.38;;;15.32;;
23517;SDS011;11935;50.878;4.392;2022-12-18T06:06:44;24.73;;;14.15;;
23517;SDS011;11935;50.878;4.392;2022-12-18T06:09:10;28.40;;;14.63;;
23517;SDS011;11935;50.878;4.392;2022-12-18T06:11:37;26.20;;;14.95;;
23517;SDS011;11935;50.878;4.392;2022-12-18T06:14:03;27.70;;;15.77;;
23517;SDS011;11935;50.878;4.392;2022-12-18T06:16:29;26.95;;;14.57;;
23517;SDS011;11935;50.878;4.392;2022-12-18T06:18:56;27.42;;;15.98;;
23517;SDS011;11935;50.878;4.392;2022-12-18T06:21:23;24.77;;;15.48;;
23517;SDS011;11935;50.878;4.392;2022-12-18T06:23:49;30.73;;;16.40;;
23517;SDS011;11935;50.878;4.392;2022-12-18T06:26:15;24.67;;;15.00;;
23517;SDS011;11935;50.878;4.392;2022-12-18T06:28:41;27.30;;;14.98;;
23517;SDS011;11935;50.878;4.392;2022-12-18T06:31:07;23.52;;;15.05;;
23517;SDS011;11935;50.878;4.392;2022-12-18T06:33:34;25.63;;;14.70;;
23517;SDS011;11935;50.878;4.392;2022-12-18T06:36:10;27.30;;;14.98;;
23517;SDS011;11935;50.878;4.392;2022-12-18T06:38:37;23.17;;;13.75;;
23517;SDS011;11935;50.878;4.392;2022-12-18T06:41:10;23.25;;;13.50;;
23517;SDS011;11935;50.878;4.392;2022-12-18T06:43:36;27.85;;;14.68;;
23517;SDS011;11935;50.878;4.392;2022-12-18T06:46:03;24.45;;;13.70;;
23517;SDS011;11935;50.878;4.392;2022-12-18T06:48:30;22.40;;;13.02;;
23517;SDS011;11935;50.878;4.392;2022-12-18T06:50:56;25.63;;;13.95;;
23517;SDS011;11935;50.878;4.392;2022-12-18T06:53:22;22.38;;;13.57;;
23517;SDS011;11935;50.878;4.392;2022-12-18T06:55:49;26.13;;;13.32;;
23517;SDS011;11935;50.878;4.392;2022-12-18T06:58:15;23.02;;;13.73;;
23517;SDS011;11935;50.878;4.392;2022-12-18T07:00:41;32.38;;;18.55;;
23517;SDS011;11935;50.878;4.392;2022-12-18T07:03:07;25.05;;;15.13;;
23517;SDS011;11935;50.878;4.392;2022-12-18T07:05:33;23.10;;;14.40;;
23517;SDS011;11935;50.878;4.392;2022-12-18T07:07:59;22.30;;;13.50;;
23517;SDS011;11935;50.878;4.392;2022-12-18T07:10:25;24.58;;;12.82;;
23517;SDS011;11935;50.878;4.392;2022-12-18T07:12:51;23.35;;;12.23;;
23517;SDS011;11935;50.878;4.392;2022-12-18T07:15:17;21.65;;;12.93;;
23517;SDS011;11935;50.878;4.392;2022-12-18T07:17:43;22.33;;;13.20;;
23517;SDS011;11935;50.878;4.392;2022-12-18T07:20:09;21.40;;;12.65;;
23517;SDS011;11935;50.878;4.392;2022-12-18T07:22:36;21.27;;;13.20;;
23517;SDS011;11935;50.878;4.392;2022-12-18T07:25:02;23.65;;;13.57;;
23517;SDS011;11935;50.878;4.392;2022-12-18T07:27:28;23.77;;;13.63;;
23517;SDS011;11935;50.878;4.392;2022-12-18T07:29:54;22.13;;;12.75;;
23517;SDS011;11935;50.878;4.392;2022-12-18T07:32:20;22.92;;;13.73;;
23517;SDS011;11935;50.878;4.392;2022-12-18T07:34:46;27.00;;;13.63;;
23517;SDS011;11935;50.878;4.392;2022-12-18T07:37:12;23.50;;;13.15;;
23517;SDS011;11935;50.878;4.392;2022-12-18T07:39:38;23.55;;;13.55;;
23517;SDS011;11935;50.878;4.392;2022-12-18T07:42:04;24.90;;;12.43;;
23517;SDS011;11935;50.878;4.392;2022-12-18T07:44:49;24.02;;;12.23;;
23517;SDS011;11935;50.878;4.392;2022-12-18T07:47:15;23.08;;;12.55;;
23517;SDS011;11935;50.878;4.392;2022-12-18T07:49:41;21.20;;;12.55;;
23517;SDS011;11935;50.878;4.392;2022-12-18T07:52:07;24.58;;;13.10;;
23517;SDS011;11935;50.878;4.392;2022-12-18T07:54:34;20.35;;;11.43;;
23517;SDS011;11935;50.878;4.392;2022-12-18T07:57:00;14.27;;;9.75;;
23517;SDS011;11935;50.878;4.392;2022-12-18T07:59:26;21.60;;;13.20;;
23517;SDS011;11935;50.878;4.392;2022-12-18T08:01:52;21.13;;;12.40;;
23517;SDS011;11935;50.878;4.392;2022-12-18T08:04:18;19.02;;;11.95;;
23517;SDS011;11935;50.878;4.392;2022-12-18T08:06:44;21.40;;;12.98;;
23517;SDS011;11935;50.878;4.392;2022-12-18T08:09:10;18.75;;;11.38;;
23517;SDS011;11935;50.878;4.392;2022-12-18T08:11:36;22.75;;;12.65;;
23517;SDS011;11935;50.878;4.392;2022-12-18T08:14:03;21.05;;;12.55;;
23517;SDS011;11935;50.878;4.392;2022-12-18T08:16:29;20.33;;;11.48;;
23517;SDS011;11935;50.878;4.392;2022-12-18T08:18:55;19.38;;;10.75;;
23517;SDS011;11935;50.878;4.392;2022-12-18T08:21:23;20.17;;;11.40;;
23517;SDS011;11935;50.878;4.392;2022-12-18T08:23:50;19.35;;;11.98;;
23517;SDS011;11935;50.878;4.392;2022-12-18T08:26:16;19.05;;;11.27;;
23517;SDS011;11935;50.878;4.392;2022-12-18T08:28:42;19.10;;;11.00;;
23517;SDS011;11935;50.878;4.392;2022-12-18T08:31:09;17.13;;;10.85;;
23517;SDS011;11935;50.878;4.392;2022-12-18T08:33:35;17.77;;;11.35;;
23517;SDS011;11935;50.878;4.392;2022-12-18T08:36:02;21.35;;;12.60;;
23517;SDS011;11935;50.878;4.392;2022-12-18T08:38:28;21.00;;;12.57;;
23517;SDS011;11935;50.878;4.392;2022-12-18T08:41:04;22.48;;;13.18;;
23517;SDS011;11935;50.878;4.392;2022-12-18T08:43:31;20.40;;;12.73;;
23517;SDS011;11935;50.878;4.392;2022-12-18T08:46:16;17.75;;;12.27;;
23517;SDS011;11935;50.878;4.392;2022-12-18T08:48:42;17.85;;;11.82;;
23517;SDS011;11935;50.878;4.392;2022-12-18T08:51:09;17.15;;;11.15;;
23517;SDS011;11935;50.878;4.392;2022-12-18T08:53:38;18.25;;;10.40;;
23517;SDS011;11935;50.878;4.392;2022-12-18T08:56:04;19.88;;;12.23;;
23517;SDS011;11935;50.878;4.392;2022-12-18T08:58:30;18.50;;;11.30;;
23517;SDS011;11935;50.878;4.392;2022-12-18T09:01:00;17.95;;;10.75;;
23517;SDS011;11935;50.878;4.392;2022-12-18T09:03:27;19.20;;;10.43;;
23517;SDS011;11935;50.878;4.392;2022-12-18T09:05:53;17.70;;;10.52;;
23517;SDS011;11935;50.878;4.392;2022-12-18T09:08:19;19.35;;;10.48;;
23517;SDS011;11935;50.878;4.392;2022-12-18T09:10:48;18.85;;;12.18;;
23517;SDS011;11935;50.878;4.392;2022-12-18T09:13:14;17.90;;;10.15;;
23517;SDS011;11935;50.878;4.392;2022-12-18T09:15:41;17.08;;;10.57;;
23517;SDS011;11935;50.878;4.392;2022-12-18T09:18:07;18.05;;;9.57;;
23517;SDS011;11935;50.878;4.392;2022-12-18T09:20:34;16.05;;;10.00;;
23517;SDS011;11935;50.878;4.392;2022-12-18T09:23:00;17.45;;;10.55;;
23517;SDS011;11935;50.878;4.392;2022-12-18T09:25:26;16.38;;;10.40;;
23517;SDS011;11935;50.878;4.392;2022-12-18T09:27:56;17.05;;;9.48;;
23517;SDS011;11935;50.878;4.392;2022-12-18T09:30:22;13.63;;;8.73;;
23517;SDS011;11935;50.878;4.392;2022-12-18T09:32:48;16.05;;;10.02;;
23517;SDS011;11935;50.878;4.392;2022-12-18T09:35:15;15.35;;;9.13;;
23517;SDS011;11935;50.878;4.392;2022-12-18T09:37:41;14.90;;;9.40;;
23517;SDS011;11935;50.878;4.392;2022-12-18T09:40:12;15.77;;;9.65;;
23517;SDS011;11935;50.878;4.392;2022-12-18T09:42:39;18.42;;;9.80;;
23517;SDS011;11935;50.878;4.392;2022-12-18T09:45:07;16.58;;;10.05;;
23517;SDS011;11935;50.878;4.392;2022-12-18T09:47:37;17.40;;;9.43;;
23517;SDS011;11935;50.878;4.392;2022-12-18T09:50:07;17.15;;;10.00;;
23517;SDS011;11935;50.878;4.392;2022-12-18T09:52:44;17.63;;;9.63;;
23517;SDS011;11935;50.878;4.392;2022-12-18T09:55:18;14.15;;;8.73;;
23517;SDS011;11935;50.878;4.392;2022-12-18T09:57:47;16.77;;;9.45;;
23517;SDS011;11935;50.878;4.392;2022-12-18T10:00:16;12.75;;;7.95;;
23517;SDS011;11935;50.878;4.392;2022-12-18T10:02:43;13.85;;;9.07;;
23517;SDS011;11935;50.878;4.392;2022-12-18T10:05:11;18.70;;;10.80;;
23517;SDS011;11935;50.878;4.392;2022-12-18T10:07:49;17.60;;;10.05;;
23517;SDS011;11935;50.878;4.392;2022-12-18T10:10:23;14.55;;;7.93;;
23517;SDS011;11935;50.878;4.392;2022-12-18T10:12:56;19.75;;;9.88;;
23517;SDS011;11935;50.878;4.392;2022-12-18T10:20:48;17.45;;;9.38;;
23517;SDS011;11935;50.878;4.392;2022-12-18T10:25:53;15.18;;;9.73;;
23517;SDS011;11935;50.878;4.392;2022-12-18T10:28:21;14.60;;;8.43;;
23517;SDS011;11935;50.878;4.392;2022-12-18T10:30:49;22.20;;;9.30;;
23517;SDS011;11935;50.878;4.392;2022-12-18T10:33:18;15.48;;;9.80;;
23517;SDS011;11935;50.878;4.392;2022-12-18T10:35:45;15.65;;;8.95;;
23517;SDS011;11935;50.878;4.392;2022-12-18T10:43:38;17.00;;;10.23;;
23517;SDS011;11935;50.878;4.392;2022-12-18T10:51:07;23.00;;;12.18;;
23517;SDS011;11935;50.878;4.392;2022-12-18T10:53:34;17.52;;;9.68;;
23517;SDS011;11935;50.878;4.392;2022-12-18T10:56:02;18.80;;;10.90;;
23517;SDS011;11935;50.878;4.392;2022-12-18T10:58:29;16.77;;;8.77;;
23517;SDS011;11935;50.878;4.392;2022-12-18T11:03:36;20.27;;;10.40;;
23517;SDS011;11935;50.878;4.392;2022-12-18T11:06:04;15.73;;;9.43;;
23517;SDS011;11935;50.878;4.392;2022-12-18T11:08:30;18.88;;;11.05;;
23517;SDS011;11935;50.878;4.392;2022-12-18T11:10:56;18.10;;;11.82;;
23517;SDS011;11935;50.878;4.392;2022-12-18T11:13:24;20.33;;;11.00;;
23517;SDS011;11935;50.878;4.392;2022-12-18T11:15:51;27.63;;;13.90;;
23517;SDS011;11935;50.878;4.392;2022-12-18T11:18:19;22.13;;;12.85;;
23517;SDS011;11935;50.878;4.392;2022-12-18T11:20:50;23.00;;;11.45;;
23517;SDS011;11935;50.878;4.392;2022-12-18T11:23:16;25.48;;;13.23;;
23517;SDS011;11935;50.878;4.392;2022-12-18T11:25:58;26.33;;;14.70;;
23517;SDS011;11935;50.878;4.392;2022-12-18T11:28:38;27.05;;;13.85;;
23517;SDS011;11935;50.878;4.392;2022-12-18T11:33:38;19.35;;;12.52;;
23517;SDS011;11935;50.878;4.392;2022-12-18T11:36:06;16.92;;;10.18;;
23517;SDS011;11935;50.878;4.392;2022-12-18T11:38:37;22.23;;;11.83;;
23517;SDS011;11935;50.878;4.392;2022-12-18T11:54:14;20.25;;;12.98;;
23517;SDS011;11935;50.878;4.392;2022-12-18T12:12:42;19.02;;;10.82;;
23517;SDS011;11935;50.878;4.392;2022-12-18T12:15:21;19.77;;;9.48;;
23517;SDS011;11935;50.878;4.392;2022-12-18T12:23:04;20.13;;;9.32;;
23517;SDS011;11935;50.878;4.392;2022-12-18T12:25:43;19.70;;;10.15;;
23517;SDS011;11935;50.878;4.392;2022-12-18T12:34:02;16.42;;;8.65;;
23517;SDS011;11935;50.878;4.392;2022-12-18T12:38:57;17.88;;;9.18;;
23517;SDS011;11935;50.878;4.392;2022-12-18T12:41:25;15.80;;;8.25;;
23517;SDS011;11935;50.878;4.392;2022-12-18T12:44:13;26.27;;;10.30;;
23517;SDS011;11935;50.878;4.392;2022-12-18T12:46:40;19.90;;;10.65;;
23517;SDS011;11935;50.878;4.392;2022-12-18T12:49:17;19.25;;;9.13;;
23517;SDS011;11935;50.878;4.392;2022-12-18T12:51:51;19.10;;;10.38;;
23517;SDS011;11935;50.878;4.392;2022-12-18T12:54:23;20.38;;;9.77;;
23517;SDS011;11935;50.878;4.392;2022-12-18T13:01:59;21.90;;;9.40;;
23517;SDS011;11935;50.878;4.392;2022-12-18T13:04:34;22.45;;;11.68;;
23517;SDS011;11935;50.878;4.392;2022-12-18T13:07:24;22.48;;;11.60;;
23517;SDS011;11935;50.878;4.392;2022-12-18T13:12:51;22.77;;;11.63;;
23517;SDS011;11935;50.878;4.392;2022-12-18T13:17:49;27.25;;;11.52;;
23517;SDS011;11935;50.878;4.392;2022-12-18T13:20:32;15.50;;;7.43;;
23517;SDS011;11935;50.878;4.392;2022-12-18T13:22:59;23.38;;;12.52;;
23517;SDS011;11935;50.878;4.392;2022-12-18T13:25:35;21.80;;;12.85;;
23517;SDS011;11935;50.878;4.392;2022-12-18T13:35:51;27.55;;;12.57;;
23517;SDS011;11935;50.878;4.392;2022-12-18T13:38:20;25.63;;;12.98;;
23517;SDS011;11935;50.878;4.392;2022-12-18T13:43:38;24.00;;;11.95;;
23517;SDS011;11935;50.878;4.392;2022-12-18T13:48:32;25.98;;;12.55;;
23517;SDS011;11935;50.878;4.392;2022-12-18T13:51:08;23.63;;;10.20;;
23517;SDS011;11935;50.878;4.392;2022-12-18T13:53:37;17.17;;;7.50;;
23517;SDS011;11935;50.878;4.392;2022-12-18T13:56:04;24.65;;;13.15;;
23517;SDS011;11935;50.878;4.392;2022-12-18T13:58:31;25.13;;;14.30;;
23517;SDS011;11935;50.878;4.392;2022-12-18T14:00:57;23.17;;;12.05;;
23517;SDS011;11935;50.878;4.392;2022-12-18T14:03:25;26.50;;;10.40;;
23517;SDS011;11935;50.878;4.392;2022-12-18T14:05:52;23.80;;;12.55;;
23517;SDS011;11935;50.878;4.392;2022-12-18T14:08:19;24.27;;;13.53;;
23517;SDS011;11935;50.878;4.392;2022-12-18T14:10:46;29.50;;;14.13;;
23517;SDS011;11935;50.878;4.392;2022-12-18T14:16:18;27.55;;;14.05;;
23517;SDS011;11935;50.878;4.392;2022-12-18T14:18:53;29.25;;;15.50;;
23517;SDS011;11935;50.878;4.392;2022-12-18T14:21:29;31.17;;;15.65;;
23517;SDS011;11935;50.878;4.392;2022-12-18T14:24:12;30.50;;;14.70;;
23517;SDS011;11935;50.878;4.392;2022-12-18T14:26:39;28.30;;;15.38;;
23517;SDS011;11935;50.878;4.392;2022-12-18T14:34:35;29.05;;;14.52;;
23517;SDS011;11935;50.878;4.392;2022-12-18T14:37:01;31.48;;;14.93;;
23517;SDS011;11935;50.878;4.392;2022-12-18T14:39:27;27.58;;;15.15;;
23517;SDS011;11935;50.878;4.392;2022-12-18T14:41:53;29.63;;;14.77;;
23517;SDS011;11935;50.878;4.392;2022-12-18T14:44:19;32.30;;;15.65;;
23517;SDS011;11935;50.878;4.392;2022-12-18T14:46:46;31.00;;;14.32;;
23517;SDS011;11935;50.878;4.392;2022-12-18T14:49:21;32.28;;;15.55;;
23517;SDS011;11935;50.878;4.392;2022-12-18T14:51:49;33.97;;;16.40;;
23517;SDS011;11935;50.878;4.392;2022-12-18T14:54:17;30.45;;;16.63;;
23517;SDS011;11935;50.878;4.392;2022-12-18T14:56:45;20.30;;;10.23;;
23517;SDS011;11935;50.878;4.392;2022-12-18T14:59:15;33.70;;;18.17;;
23517;SDS011;11935;50.878;4.392;2022-12-18T15:04:24;30.13;;;15.68;;
23517;SDS011;11935;50.878;4.392;2022-12-18T15:07:02;34.53;;;18.02;;
23517;SDS011;11935;50.878;4.392;2022-12-18T15:09:28;37.38;;;15.52;;
23517;SDS011;11935;50.878;4.392;2022-12-18T15:11:55;32.05;;;15.98;;
23517;SDS011;11935;50.878;4.392;2022-12-18T15:16:54;29.60;;;15.38;;
23517;SDS011;11935;50.878;4.392;2022-12-18T15:19:21;37.10;;;17.83;;
23517;SDS011;11935;50.878;4.392;2022-12-18T15:21:48;32.33;;;16.73;;
23517;SDS011;11935;50.878;4.392;2022-12-18T15:24:16;35.25;;;17.92;;
23517;SDS011;11935;50.878;4.392;2022-12-18T15:26:43;31.70;;;16.60;;
23517;SDS011;11935;50.878;4.392;2022-12-18T15:29:18;36.72;;;17.40;;
23517;SDS011;11935;50.878;4.392;2022-12-18T15:31:45;28.42;;;15.23;;
23517;SDS011;11935;50.878;4.392;2022-12-18T15:34:23;36.95;;;16.85;;
23517;SDS011;11935;50.878;4.392;2022-12-18T15:36:50;31.48;;;14.57;;
23517;SDS011;11935;50.878;4.392;2022-12-18T15:39:16;28.38;;;14.85;;
23517;SDS011;11935;50.878;4.392;2022-12-18T15:41:42;39.03;;;17.05;;
23517;SDS011;11935;50.878;4.392;2022-12-18T15:44:29;33.28;;;16.38;;
23517;SDS011;11935;50.878;4.392;2022-12-18T15:46:55;31.77;;;17.20;;
23517;SDS011;11935;50.878;4.392;2022-12-18T15:49:21;34.25;;;16.00;;
23517;SDS011;11935;50.878;4.392;2022-12-18T15:51:53;29.25;;;13.73;;
23517;SDS011;11935;50.878;4.392;2022-12-18T15:54:20;35.22;;;16.35;;
23517;SDS011;11935;50.878;4.392;2022-12-18T15:57:08;28.88;;;14.02;;
23517;SDS011;11935;50.878;4.392;2022-12-18T15:59:53;29.08;;;14.13;;
23517;SDS011;11935;50.878;4.392;2022-12-18T16:02:21;29.73;;;14.45;;
23517;SDS011;11935;50.878;4.392;2022-12-18T16:04:48;31.63;;;15.75;;
23517;SDS011;11935;50.878;4.392;2022-12-18T16:07:14;33.28;;;13.30;;
23517;SDS011;11935;50.878;4.392;2022-12-18T16:09:41;40.38;;;18.55;;
23517;SDS011;11935;50.878;4.392;2022-12-18T16:12:11;38.95;;;16.92;;
23517;SDS011;11935;50.878;4.392;2022-12-18T16:14:39;30.65;;;15.10;;
23517;SDS011;11935;50.878;4.392;2022-12-18T16:17:08;31.70;;;14.90;;
23517;SDS011;11935;50.878;4.392;2022-12-18T16:19:35;27.20;;;11.88;;
23517;SDS011;11935;50.878;4.392;2022-12-18T16:22:01;30.55;;;15.23;;
23517;SDS011;11935;50.878;4.392;2022-12-18T16:24:28;28.83;;;13.52;;
23517;SDS011;11935;50.878;4.392;2022-12-18T16:26:55;25.60;;;13.98;;
23517;SDS011;11935;50.878;4.392;2022-12-18T16:29:21;26.48;;;13.27;;
23517;SDS011;11935;50.878;4.392;2022-12-18T16:31:51;19.13;;;8.65;;
23517;SDS011;11935;50.878;4.392;2022-12-18T16:34:21;33.72;;;15.75;;
23517;SDS011;11935;50.878;4.392;2022-12-18T16:36:48;25.85;;;11.55;;
23517;SDS011;11935;50.878;4.392;2022-12-18T16:39:15;20.98;;;10.45;;